Terminal Aerodrome Forecast
Issued by NWS

Home | Current Version | Previous Version | Text Only | Print | Product List | Glossary On
Versions: 1 2 3 4 5 6 7 8 9 10 11 12 13 14 15 16 17 18 19 20 21
000
FTAK31 PAJN 301400 AAA
TAFAGY
TAF AMD
PAGY 301410Z 3014/3112 00000KT 6SM BR VCSH BKN020 OVC040
      TEMPO 3014/3016 3SM BR BKN015 OVC040
     FM301800 21008KT P6SM VCSH SCT025 OVC050
     FM302100 21013G18KT P6SM VCSH OVC050
     FM310600 21009KT P6SM VCSH SCT040 OVC060
     FM310900 21006KT P6SM -SHRA SCT025 OVC050
      AMD LTD TO CLD VIS AND WIND=

USA.gov is the U.S. government's official web portal to all federal, state and local government web resources and services.